Time;durP1;ratioP1;P1;durP2;ratioP2;P2;SDS_P1;SDS_P2;PMS_P1;PMS_P2;Temp;Humidity;BMP_temperature;BMP_pressure;BME280_temperature;BME280_humidity;BME280_pressure;Samples;Min_cycle;Max_cycle;Signal;HPM_P1;HPM_P2
2023/05/12 00:00:58;;;;;;;12.90;6.40;;;11.60;99.90;;;;;;5053333;28;20045;-50
2023/05/12 00:03:24;;;;;;;12.98;5.63;;;11.60;99.90;;;;;;5053153;28;20092;-49
2023/05/12 00:05:49;;;;;;;11.07;5.40;;;11.60;99.90;;;;;;5053088;28;20081;-47
2023/05/12 00:08:15;;;;;;;14.10;5.65;;;11.60;99.90;;;;;;5053154;28;20052;-47
2023/05/12 00:10:41;;;;;;;11.98;5.32;;;11.60;99.90;;;;;;5053075;28;20041;-49
2023/05/12 00:13:08;;;;;;;11.47;5.23;;;11.60;99.90;;;;;;5056659;28;20504;-51
2023/05/12 00:15:35;;;;;;;;;;;11.60;99.90;;;;;;5057352;28;20283;-45
2023/05/12 00:18:01;;;;;;;12.00;5.47;;;11.60;99.90;;;;;;5056859;28;19966;-46
2023/05/12 00:20:26;;;;;;;11.43;4.80;;;11.60;99.90;;;;;;5056859;28;20132;-45
2023/05/12 00:22:52;;;;;;;14.80;6.32;;;11.60;99.90;;;;;;5056759;28;20080;-45
2023/05/12 00:25:18;;;;;;;14.07;6.30;;;11.60;99.90;;;;;;5056681;28;20084;-47
2023/05/12 00:27:43;;;;;;;13.40;5.80;;;11.70;99.90;;;;;;5056811;28;20041;-46
2023/05/12 00:30:10;;;;;;;14.20;6.93;;;11.60;99.90;;;;;;5056702;28;20570;-45
2023/05/12 00:32:36;;;;;;;;;;;11.70;99.90;;;;;;5056887;28;20392;-45
2023/05/12 00:35:01;;;;;;;13.95;5.50;;;11.60;99.90;;;;;;5055257;28;19921;-45
2023/05/12 00:37:27;;;;;;;13.00;6.33;;;11.60;99.90;;;;;;5056549;28;20077;-45
2023/05/12 00:39:53;;;;;;;14.37;5.43;;;11.60;99.90;;;;;;5056537;28;20045;-45
2023/05/12 00:42:18;;;;;;;13.63;6.00;;;11.70;99.90;;;;;;5056411;28;20616;-46
2023/05/12 00:44:44;;;;;;;13.23;5.80;;;11.70;99.90;;;;;;5056436;28;20037;-45
2023/05/12 00:47:11;;;;;;;14.40;6.07;;;11.70;99.90;;;;;;5056461;28;20102;-44
2023/05/12 00:49:41;;;;;;;11.38;5.05;;;11.70;99.90;;;;;;5056325;28;20091;-46
2023/05/12 00:52:07;;;;;;;13.05;5.93;;;11.70;99.90;;;;;;5056309;28;20045;-45
2023/05/12 00:54:34;;;;;;;11.68;5.68;;;11.70;99.90;;;;;;5055926;28;20040;-46
2023/05/12 00:56:59;;;;;;;12.25;5.60;;;11.70;99.90;;;;;;5056197;28;20045;-45
2023/05/12 00:59:25;;;;;;;18.20;6.33;;;11.70;99.90;;;;;;5056151;28;20045;-46
2023/05/12 01:01:51;;;;;;;12.27;5.35;;;11.80;99.90;;;;;;5056087;28;20049;-45
2023/05/12 01:04:17;;;;;;;11.00;4.97;;;11.80;99.90;;;;;;5056126;28;20373;-45
2023/05/12 01:06:52;;;;;;;12.02;5.55;;;11.80;99.90;;;;;;5055920;28;20286;-45
2023/05/12 01:09:18;;;;;;;13.65;5.25;;;11.80;99.90;;;;;;5055823;28;20095;-45
2023/05/12 01:11:43;;;;;;;13.35;5.15;;;11.80;99.90;;;;;;5055914;28;20049;-45
2023/05/12 01:14:09;;;;;;;13.87;5.63;;;11.80;99.90;;;;;;5055819;28;20384;-46
2023/05/12 01:16:40;;;;;;;13.70;6.07;;;11.80;99.90;;;;;;5055779;28;20079;-45
2023/05/12 01:19:11;;;;;;;12.68;5.88;;;11.80;99.90;;;;;;5055661;28;20068;-45
2023/05/12 01:21:37;;;;;;;13.27;6.82;;;11.80;99.90;;;;;;5055349;28;20048;-45
2023/05/12 01:24:07;;;;;;;12.80;6.25;;;11.80;99.90;;;;;;5054681;28;20139;-45
2023/05/12 01:26:33;;;;;;;12.90;5.68;;;11.80;99.90;;;;;;5056063;28;20432;-45
2023/05/12 01:29:01;;;;;;;13.53;5.90;;;11.80;99.90;;;;;;5054450;28;20063;-45
2023/05/12 01:31:28;;;;;;;14.95;6.75;;;11.80;99.90;;;;;;5055654;28;20349;-45
2023/05/12 01:33:54;;;;;;;14.27;6.05;;;11.80;99.90;;;;;;5055382;28;20052;-45
2023/05/12 01:36:20;;;;;;;11.93;6.47;;;11.80;99.90;;;;;;5055359;28;20393;-45
2023/05/12 01:38:45;;;;;;;13.00;6.13;;;11.90;99.90;;;;;;5055394;28;20127;-45
2023/05/12 01:41:11;;;;;;;12.40;5.53;;;11.90;99.90;;;;;;5055488;28;20044;-45
2023/05/12 01:43:37;;;;;;;17.43;6.77;;;11.90;99.90;;;;;;5055545;28;20040;-45
2023/05/12 01:46:02;;;;;;;15.23;6.47;;;11.90;99.90;;;;;;5054523;28;20059;-46
2023/05/12 01:48:28;;;;;;;14.90;6.28;;;11.90;99.90;;;;;;5055231;28;20052;-45
2023/05/12 01:50:54;;;;;;;14.67;6.20;;;11.90;99.90;;;;;;5055156;28;20052;-45
2023/05/12 01:53:19;;;;;;;18.17;6.77;;;11.90;99.90;;;;;;5055311;28;20045;-45
2023/05/12 01:55:45;;;;;;;15.67;7.07;;;11.90;99.90;;;;;;5055171;28;20050;-45
2023/05/12 01:58:11;;;;;;;13.47;6.40;;;11.90;99.90;;;;;;5055017;28;20423;-45
2023/05/12 02:00:36;;;;;;;14.80;6.07;;;11.90;99.90;;;;;;5055175;28;20183;-45
2023/05/12 02:03:02;;;;;;;14.63;7.30;;;11.90;99.90;;;;;;5055196;28;20041;-47
2023/05/12 02:05:28;;;;;;;14.90;6.60;;;11.90;99.90;;;;;;5054835;28;20405;-45
2023/05/12 02:07:54;;;;;;;16.27;6.65;;;12.00;99.90;;;;;;5054961;28;20290;-45
2023/05/12 02:10:19;;;;;;;15.00;6.63;;;11.90;99.90;;;;;;5054882;28;20045;-45
2023/05/12 02:12:45;;;;;;;15.27;6.70;;;11.90;99.90;;;;;;5053850;28;20053;-46
2023/05/12 02:15:11;;;;;;;15.00;6.33;;;11.90;99.90;;;;;;5053545;28;20056;-45
2023/05/12 02:17:36;;;;;;;18.80;7.37;;;11.90;99.90;;;;;;5054558;28;20080;-45
2023/05/12 02:20:04;;;;;;;16.57;6.30;;;11.90;99.90;;;;;;5054672;28;20132;-45
2023/05/12 02:22:29;;;;;;;14.13;6.05;;;11.90;99.90;;;;;;5053599;28;20055;-45
2023/05/12 02:24:55;;;;;;;12.87;6.20;;;11.90;99.90;;;;;;5054592;28;20045;-45
2023/05/12 02:27:21;;;;;;;12.90;6.13;;;11.90;99.90;;;;;;5054351;28;20053;-46
2023/05/12 02:29:46;;;;;;;14.70;6.97;;;11.90;99.90;;;;;;5054373;28;20041;-45
2023/05/12 02:32:12;;;;;;;14.10;6.43;;;11.90;99.90;;;;;;5054435;28;20045;-45
2023/05/12 02:34:38;;;;;;;12.70;6.20;;;11.90;99.90;;;;;;5053338;28;20299;-46
2023/05/12 02:37:03;;;;;;;14.20;6.80;;;11.90;99.90;;;;;;5055015;28;20135;-47
2023/05/12 02:39:29;;;;;;;15.33;7.03;;;11.90;99.90;;;;;;5054849;28;20546;-47
2023/05/12 02:41:55;;;;;;;14.60;6.27;;;11.90;99.90;;;;;;5054261;28;20275;-49
2023/05/12 02:44:21;;;;;;;14.57;6.70;;;11.90;99.90;;;;;;5054174;28;20059;-47
2023/05/12 02:46:47;;;;;;;13.60;6.72;;;11.90;99.90;;;;;;5054180;28;20123;-48
2023/05/12 02:49:12;;;;;;;15.70;6.40;;;11.90;99.90;;;;;;5053997;28;20270;-49
2023/05/12 02:51:38;;;;;;;12.30;5.53;;;11.90;99.90;;;;;;5053796;28;20438;-49
2023/05/12 02:54:04;;;;;;;15.07;7.10;;;11.90;99.90;;;;;;5036334;28;20048;-48
2023/05/12 02:56:30;;;;;;;15.82;6.40;;;11.90;99.90;;;;;;5053981;28;20131;-49
2023/05/12 02:58:55;;;;;;;14.30;6.00;;;11.90;99.90;;;;;;5054109;28;20133;-47
2023/05/12 03:01:21;;;;;;;14.63;6.03;;;11.90;99.90;;;;;;5052695;28;20052;-47
2023/05/12 03:03:47;;;;;;;14.80;6.27;;;11.90;99.90;;;;;;5053633;28;20041;-48
2023/05/12 03:06:12;;;;;;;13.50;6.70;;;11.90;99.90;;;;;;5053839;28;20059;-48
2023/05/12 03:08:38;;;;;;;14.60;6.37;;;11.90;99.90;;;;;;5053759;28;20041;-49
2023/05/12 03:11:04;;;;;;;15.20;6.40;;;11.80;99.90;;;;;;5053809;28;20045;-48
2023/05/12 03:13:30;;;;;;;13.77;6.15;;;11.80;99.90;;;;;;5053660;28;20048;-46
2023/05/12 03:15:59;;;;;;;16.80;6.93;;;11.80;99.90;;;;;;5053960;28;20045;-46
2023/05/12 03:18:26;;;;;;;14.52;6.15;;;11.80;99.90;;;;;;5053239;28;20088;-45
2023/05/12 03:20:52;;;;;;;;;;;11.80;99.90;;;;;;5054064;28;20045;-45
2023/05/12 03:23:17;;;;;;;14.05;6.35;;;11.80;99.90;;;;;;5053650;28;19921;-45
2023/05/12 03:25:43;;;;;;;15.93;5.97;;;11.80;99.90;;;;;;5053716;28;20404;-45
2023/05/12 03:28:09;;;;;;;14.13;5.60;;;11.80;99.90;;;;;;5052491;28;20052;-45
2023/05/12 03:30:34;;;;;;;16.67;6.80;;;11.80;99.90;;;;;;5053416;28;20546;-45
2023/05/12 03:33:00;;;;;;;13.90;6.07;;;11.80;99.90;;;;;;5053325;28;20286;-45
2023/05/12 03:35:26;;;;;;;15.07;6.60;;;11.80;99.90;;;;;;5053767;28;20504;-45
2023/05/12 03:37:52;;;;;;;14.00;6.30;;;11.80;99.90;;;;;;5052719;28;20758;-45
2023/05/12 03:40:17;;;;;;;14.57;6.35;;;11.80;99.90;;;;;;5053430;28;20131;-45
2023/05/12 03:42:44;;;;;;;19.60;6.87;;;11.80;99.90;;;;;;5053492;28;20044;-46
2023/05/12 03:45:10;;;;;;;13.52;6.22;;;11.80;99.90;;;;;;5054380;28;20045;-45
2023/05/12 03:47:36;;;;;;;13.82;6.90;;;11.80;99.90;;;;;;5057376;28;20059;-45
2023/05/12 03:50:02;;;;;;;12.83;6.67;;;11.80;99.90;;;;;;5057263;28;20131;-45
2023/05/12 03:52:28;;;;;;;14.27;6.18;;;11.80;99.90;;;;;;5057824;28;20465;-46
2023/05/12 03:54:53;;;;;;;13.13;5.50;;;11.80;99.90;;;;;;5057217;28;20044;-45
2023/05/12 03:57:19;;;;;;;15.23;7.27;;;11.80;99.90;;;;;;5057306;28;20052;-45
2023/05/12 03:59:45;;;;;;;13.63;6.07;;;11.80;99.90;;;;;;5057098;28;20041;-45
2023/05/12 04:02:11;;;;;;;16.70;6.85;;;11.80;99.90;;;;;;5056073;28;20075;-45
2023/05/12 04:04:37;;;;;;;18.20;7.13;;;11.80;99.90;;;;;;5055939;28;20114;-45
2023/05/12 04:07:03;;;;;;;15.90;6.83;;;11.80;99.90;;;;;;5057141;28;20061;-45
2023/05/12 04:09:32;;;;;;;16.85;7.40;;;11.90;99.90;;;;;;5057269;28;20095;-46
2023/05/12 04:11:57;;;;;;;14.52;6.88;;;11.90;99.90;;;;;;5056093;28;20389;-45
2023/05/12 04:14:23;;;;;;;14.27;6.87;;;11.90;99.90;;;;;;5056917;28;20102;-46
2023/05/12 04:16:49;;;;;;;13.93;6.35;;;11.90;99.90;;;;;;5055780;28;20296;-45
2023/05/12 04:19:15;;;;;;;12.23;6.10;;;11.90;99.90;;;;;;5056946;28;20132;-45
2023/05/12 04:21:41;;;;;;;13.70;6.63;;;11.90;99.90;;;;;;5056940;28;20288;-45
2023/05/12 04:24:06;;;;;;;16.38;6.32;;;11.90;99.90;;;;;;5056893;28;20162;-45
2023/05/12 04:26:32;;;;;;;15.73;6.28;;;11.90;99.90;;;;;;5056748;28;20106;-45
2023/05/12 04:28:58;;;;;;;15.50;6.87;;;11.90;99.90;;;;;;5056751;28;20123;-45
2023/05/12 04:31:23;;;;;;;14.53;6.57;;;11.90;99.90;;;;;;5056626;28;20053;-45
2023/05/12 04:33:50;;;;;;;12.10;5.73;;;11.90;99.90;;;;;;5056593;28;20387;-45
2023/05/12 04:36:16;;;;;;;17.77;7.30;;;12.00;99.90;;;;;;5056594;28;20052;-45
2023/05/12 04:38:42;;;;;;;12.55;6.82;;;12.00;99.90;;;;;;5055538;28;20052;-45
2023/05/12 04:41:08;;;;;;;13.30;6.17;;;12.00;99.90;;;;;;5056675;28;20049;-45
2023/05/12 04:43:34;;;;;;;13.63;6.28;;;12.00;99.90;;;;;;5056664;28;20102;-47
2023/05/12 04:46:00;;;;;;;14.60;6.63;;;12.00;99.90;;;;;;5056183;28;20051;-45
2023/05/12 04:48:26;;;;;;;14.68;6.97;;;12.00;99.90;;;;;;5056103;28;20052;-46
2023/05/12 04:50:52;;;;;;;15.30;7.03;;;12.10;99.90;;;;;;5056367;28;20052;-46
2023/05/12 04:53:17;;;;;;;17.83;8.13;;;12.10;99.90;;;;;;5056478;28;20048;-46
2023/05/12 04:55:44;;;;;;;17.03;7.20;;;12.10;99.90;;;;;;5056278;28;20102;-45
2023/05/12 04:58:13;;;;;;;16.27;7.13;;;12.10;99.90;;;;;;5055556;28;20045;-46
2023/05/12 05:00:39;;;;;;;15.18;6.70;;;12.10;99.90;;;;;;5056139;28;20056;-45
2023/05/12 05:03:05;;;;;;;15.05;7.35;;;12.10;99.90;;;;;;5055902;28;20049;-46
2023/05/12 05:05:31;;;;;;;16.88;7.38;;;12.10;99.90;;;;;;5056065;28;20090;-46
2023/05/12 05:07:57;;;;;;;15.57;6.75;;;12.20;99.90;;;;;;5054963;28;20123;-45
2023/05/12 05:10:23;;;;;;;19.58;7.63;;;12.20;99.90;;;;;;5055885;28;20053;-45
2023/05/12 05:12:49;;;;;;;18.17;7.57;;;12.20;99.90;;;;;;5055823;28;20176;-45
2023/05/12 05:15:15;;;;;;;17.10;7.87;;;12.20;99.90;;;;;;5055776;28;20041;-47
2023/05/12 05:17:41;;;;;;;16.63;7.60;;;12.20;99.90;;;;;;5055582;28;20309;-45
2023/05/12 05:20:08;;;;;;;15.98;7.85;;;12.20;99.90;;;;;;5055903;28;20048;-46
2023/05/12 05:22:34;;;;;;;;;;;12.20;99.90;;;;;;5056159;28;20102;-46
2023/05/12 05:25:00;;;;;;;15.93;7.50;;;12.20;99.90;;;;;;5055686;28;19921;-46
2023/05/12 05:27:25;;;;;;;18.03;8.30;;;12.30;99.90;;;;;;5055594;28;20041;-46
2023/05/12 05:29:51;;;;;;;21.00;8.60;;;12.30;99.90;;;;;;5055342;28;20044;-45
2023/05/12 05:32:17;;;;;;;19.73;8.67;;;12.30;99.90;;;;;;5055775;28;20044;-46
2023/05/12 05:34:42;;;;;;;20.97;9.23;;;12.30;99.90;;;;;;5055368;28;20725;-46
2023/05/12 05:37:08;;;;;;;14.77;8.10;;;12.30;99.90;;;;;;5055360;28;20135;-45
2023/05/12 05:39:34;;;;;;;19.47;9.33;;;12.30;99.90;;;;;;5055219;28;20133;-47
2023/05/12 05:42:00;;;;;;;22.20;9.13;;;12.40;99.90;;;;;;5055209;28;20295;-48
2023/05/12 05:44:25;;;;;;;19.77;9.70;;;12.40;99.90;;;;;;5055027;28;20044;-45
2023/05/12 05:46:51;;;;;;;20.43;9.17;;;12.40;99.90;;;;;;5054967;28;20049;-48
2023/05/12 05:49:17;;;;;;;19.33;8.53;;;12.40;99.90;;;;;;5055249;28;20045;-48
2023/05/12 05:51:42;;;;;;;17.13;9.00;;;12.40;99.90;;;;;;5055048;28;20045;-47
2023/05/12 05:54:08;;;;;;;22.07;10.33;;;12.50;99.90;;;;;;5055302;28;20049;-46
2023/05/12 05:56:34;;;;;;;20.10;9.70;;;12.50;99.90;;;;;;5055132;28;20052;-46
2023/05/12 05:59:02;;;;;;;22.17;9.68;;;12.50;99.90;;;;;;5054771;28;20416;-48
2023/05/12 06:01:29;;;;;;;20.13;9.48;;;12.50;99.90;;;;;;5054887;28;20045;-45
2023/05/12 06:03:54;;;;;;;19.88;10.32;;;12.50;99.90;;;;;;5054915;28;20041;-46
2023/05/12 06:06:20;;;;;;;21.58;10.23;;;12.60;99.90;;;;;;5054719;28;20488;-46
2023/05/12 06:08:46;;;;;;;20.87;9.47;;;12.60;99.90;;;;;;5053779;28;20052;-46
2023/05/12 06:11:11;;;;;;;24.23;11.10;;;12.60;99.90;;;;;;5054983;28;20567;-46
2023/05/12 06:13:37;;;;;;;22.47;10.83;;;12.60;99.90;;;;;;5053403;28;20411;-46
2023/05/12 06:16:04;;;;;;;22.38;11.25;;;12.70;99.90;;;;;;5054460;28;20041;-46
2023/05/12 06:18:32;;;;;;;;;;;12.70;99.90;;;;;;5055107;28;20053;-45
2023/05/12 06:20:58;;;;;;;20.65;10.45;;;12.70;99.90;;;;;;5054643;28;20015;-46
2023/05/12 06:23:24;;;;;;;25.05;11.18;;;12.80;99.90;;;;;;5053383;28;20103;-46
2023/05/12 06:25:50;;;;;;;23.52;11.43;;;12.80;99.90;;;;;;5054642;28;20055;-45
2023/05/12 06:28:15;;;;;;;24.43;11.50;;;12.90;99.90;;;;;;5054194;28;20041;-45
2023/05/12 06:30:47;;;;;;;22.92;12.18;;;12.90;99.90;;;;;;5111530;27;20395;-47
2023/05/12 06:33:13;;;;;;;27.50;12.00;;;13.00;99.90;;;;;;5111612;28;20540;-46
2023/05/12 06:35:39;;;;;;;27.53;12.73;;;13.00;99.90;;;;;;5111533;28;20048;-45
2023/05/12 06:38:04;;;;;;;23.10;12.57;;;13.10;99.90;;;;;;5111329;28;20089;-46
2023/05/12 06:40:31;;;;;;;32.00;13.13;;;13.10;99.90;;;;;;5111402;28;20043;-46
2023/05/12 06:42:56;;;;;;;26.55;13.63;;;13.20;99.90;;;;;;5111368;28;20050;-45
2023/05/12 06:45:22;;;;;;;26.52;12.82;;;13.20;99.90;;;;;;5111331;27;20126;-46
2023/05/12 06:47:48;;;;;;;33.13;14.27;;;13.30;99.90;;;;;;5111266;28;20048;-46
2023/05/12 06:50:15;;;;;;;31.35;14.57;;;13.30;99.90;;;;;;5111177;28;20051;-46
2023/05/12 06:52:42;;;;;;;29.83;14.70;;;13.40;99.90;;;;;;5111249;28;20048;-46
2023/05/12 06:55:08;;;;;;;31.13;15.55;;;13.40;99.90;;;;;;5111143;28;20051;-46
2023/05/12 06:57:34;;;;;;;36.92;16.70;;;13.40;99.90;;;;;;5110814;28;20502;-46
2023/05/12 07:00:01;;;;;;;35.63;15.25;;;13.50;99.90;;;;;;5111078;28;20073;-46
2023/05/12 07:02:28;;;;;;;30.77;14.43;;;13.50;99.90;;;;;;5111011;28;20075;-46
2023/05/12 07:04:53;;;;;;;32.83;15.45;;;13.50;99.90;;;;;;5110910;28;20044;-46
2023/05/12 07:07:19;;;;;;;40.53;16.97;;;13.60;99.90;;;;;;5110911;28;20051;-46
2023/05/12 07:09:45;;;;;;;34.80;17.33;;;13.60;99.90;;;;;;5110668;28;20531;-47
2023/05/12 07:12:10;;;;;;;32.97;16.57;;;13.70;99.90;;;;;;5110577;28;20113;-46
2023/05/12 07:14:36;;;;;;;37.28;17.42;;;13.70;99.90;;;;;;5110788;28;20756;-46
2023/05/12 07:17:02;;;;;;;37.43;16.67;;;13.80;99.90;;;;;;5110752;28;20159;-47
2023/05/12 07:19:28;;;;;;;36.17;15.82;;;13.80;99.90;;;;;;5110580;28;20043;-46
2023/05/12 07:21:54;;;;;;;35.75;17.17;;;13.90;99.90;;;;;;5110492;28;20054;-46
2023/05/12 07:24:20;;;;;;;35.30;16.77;;;13.90;99.90;;;;;;5110507;28;20083;-45
2023/05/12 07:26:46;;;;;;;32.23;16.10;;;13.90;99.90;;;;;;5110344;28;20360;-46
2023/05/12 07:29:12;;;;;;;35.00;17.15;;;13.90;99.90;;;;;;5110134;28;20091;-46
2023/05/12 07:31:37;;;;;;;31.00;15.93;;;14.00;99.90;;;;;;5110499;28;20129;-46
2023/05/12 07:34:03;;;;;;;36.43;17.20;;;14.00;99.90;;;;;;5110144;28;20039;-45
2023/05/12 07:36:29;;;;;;;38.87;18.67;;;14.00;99.90;;;;;;5110455;27;20082;-47
2023/05/12 07:38:55;;;;;;;34.90;17.60;;;14.00;99.90;;;;;;5110349;28;20281;-46
2023/05/12 07:41:21;;;;;;;43.00;19.90;;;14.10;99.90;;;;;;5101185;28;20475;-47
2023/05/12 07:43:46;;;;;;;40.10;17.60;;;14.10;99.90;;;;;;5096640;28;20475;-46
2023/05/12 07:46:12;;;;;;;33.40;16.77;;;14.10;99.90;;;;;;5096876;28;20052;-46
2023/05/12 07:48:39;;;;;;;35.80;17.83;;;14.10;99.90;;;;;;5096761;28;20048;-48
2023/05/12 07:51:05;;;;;;;36.65;18.92;;;14.20;99.90;;;;;;5096798;28;20052;-47
2023/05/12 07:53:32;;;;;;;37.83;18.17;;;14.20;99.90;;;;;;5096459;28;20476;-46
2023/05/12 07:55:57;;;;;;;34.50;17.08;;;14.30;99.90;;;;;;5096228;28;20040;-46
2023/05/12 07:58:23;;;;;;;36.10;17.83;;;14.30;99.90;;;;;;5096370;28;20044;-46
2023/05/12 08:00:49;;;;;;;36.17;17.27;;;14.30;99.90;;;;;;5096479;28;20133;-46
2023/05/12 08:03:15;;;;;;;36.23;19.53;;;14.40;99.90;;;;;;5096287;28;20443;-46
2023/05/12 08:05:41;;;;;;;36.72;17.58;;;14.40;99.90;;;;;;5096305;28;20703;-45
2023/05/12 08:08:14;;;;;;;34.85;17.05;;;14.50;99.90;;;;;;5096287;28;20070;-47
2023/05/12 08:10:40;;;;;;;37.38;18.98;;;14.50;99.90;;;;;;5095809;28;20067;-45
2023/05/12 08:13:06;;;;;;;37.00;19.80;;;14.50;99.90;;;;;;5129340;27;20040;-47
2023/05/12 08:15:31;;;;;;;36.92;19.88;;;14.60;99.90;;;;;;5096419;28;20768;-46
2023/05/12 08:17:57;;;;;;;33.23;17.47;;;14.70;99.90;;;;;;5096056;28;20391;-46
2023/05/12 08:20:23;;;;;;;33.23;17.13;;;14.70;99.90;;;;;;5095959;28;20278;-46
2023/05/12 08:22:49;;;;;;;39.65;19.33;;;14.80;99.90;;;;;;5095755;28;20053;-46
2023/05/12 08:25:15;;;;;;;;;;;14.80;99.90;;;;;;5096005;28;20071;-46
2023/05/12 08:27:41;;;;;;;31.67;17.02;;;14.90;99.90;;;;;;5096093;28;20362;-45
2023/05/12 08:30:08;;;;;;;32.83;16.25;;;14.90;99.90;;;;;;5095590;28;20519;-46
2023/05/12 08:32:34;;;;;;;33.58;18.27;;;15.00;99.90;;;;;;5095865;28;20150;-46
2023/05/12 08:35:00;;;;;;;32.58;17.73;;;15.10;99.90;;;;;;5095687;28;20048;-47
2023/05/12 08:37:26;;;;;;;35.10;17.08;;;15.20;99.90;;;;;;5095641;28;20135;-46
2023/05/12 08:39:52;;;;;;;33.47;17.58;;;15.20;99.90;;;;;;5095357;28;20601;-44
2023/05/12 08:42:36;;;;;;;31.30;17.02;;;15.30;99.90;;;;;;5095507;27;20048;-44
2023/05/12 08:45:03;;;;;;;30.05;16.15;;;15.50;99.90;;;;;;5095504;28;20043;-45
2023/05/12 08:47:31;;;;;;;28.35;16.02;;;15.50;99.90;;;;;;5095290;28;20126;-46
2023/05/12 08:50:02;;;;;;;30.15;16.67;;;15.50;99.90;;;;;;5095126;28;20040;-46
2023/05/12 08:52:30;;;;;;;27.55;14.20;;;15.70;99.90;;;;;;5094372;28;20059;-46
2023/05/12 08:54:57;;;;;;;31.35;17.30;;;15.70;99.90;;;;;;5095332;28;20048;-45
2023/05/12 08:57:23;;;;;;;29.77;17.48;;;15.80;99.90;;;;;;5094393;28;20084;-46
2023/05/12 08:59:51;;;;;;;;;;;15.90;99.90;;;;;;5095658;28;20036;-47
2023/05/12 09:02:19;;;;;;;31.15;18.38;;;16.00;99.90;;;;;;5093825;28;19920;-45
2023/05/12 09:04:45;;;;;;;27.98;16.13;;;16.20;99.90;;;;;;5094985;28;20044;-47
2023/05/12 09:07:11;;;;;;;29.20;14.32;;;16.30;99.90;;;;;;5095264;28;20039;-45
2023/05/12 09:09:39;;;;;;;25.33;14.50;;;16.30;99.90;;;;;;5094858;28;20048;-47
2023/05/12 09:12:10;;;;;;;21.80;13.50;;;16.30;99.90;;;;;;5094881;28;20048;-45
2023/05/12 09:14:39;;;;;;;22.50;13.32;;;16.30;99.90;;;;;;5094792;28;20108;-45
2023/05/12 09:17:06;;;;;;;23.83;13.23;;;16.40;99.90;;;;;;5094823;28;20407;-44
2023/05/12 09:19:33;;;;;;;23.30;13.50;;;16.40;99.90;;;;;;5094644;28;20054;-46
2023/05/12 09:22:00;;;;;;;22.27;12.93;;;16.40;99.90;;;;;;5094755;28;20479;-45
2023/05/12 09:24:38;;;;;;;20.95;12.70;;;16.50;99.90;;;;;;5094746;28;20039;-48
2023/05/12 09:27:05;;;;;;;30.25;14.05;;;16.50;99.90;;;;;;5094518;28;20044;-45
2023/05/12 09:29:32;;;;;;;20.23;12.70;;;16.60;99.90;;;;;;5094434;28;20168;-44
2023/05/12 09:32:00;;;;;;;22.30;13.45;;;16.60;99.90;;;;;;5094384;28;20051;-44
2023/05/12 09:34:31;;;;;;;23.17;14.38;;;16.60;99.90;;;;;;5094556;28;20475;-45
2023/05/12 09:37:00;;;;;;;18.85;12.15;;;16.70;99.90;;;;;;5094570;28;20074;-44
2023/05/12 09:39:25;;;;;;;21.40;13.18;;;16.80;99.90;;;;;;5094598;28;20044;-46
2023/05/12 09:41:52;;;;;;;21.33;13.07;;;16.80;99.90;;;;;;5094421;28;20052;-45
2023/05/12 09:44:18;;;;;;;22.55;12.98;;;17.00;99.90;;;;;;5094340;28;20040;-45
2023/05/12 09:46:44;;;;;;;;;;;17.00;99.90;;;;;;5094820;28;20044;-45
2023/05/12 09:49:10;;;;;;;19.40;11.50;;;17.20;99.90;;;;;;5094248;28;19930;-45
2023/05/12 09:51:36;;;;;;;20.25;12.65;;;17.20;99.90;;;;;;5094366;28;20063;-44
2023/05/12 09:54:02;;;;;;;22.55;13.73;;;17.40;99.90;;;;;;5094207;28;20463;-45
2023/05/12 09:56:31;;;;;;;24.20;14.18;;;17.40;99.90;;;;;;5094201;28;20082;-44
2023/05/12 09:58:57;;;;;;;22.13;12.82;;;17.50;99.90;;;;;;5094036;28;20097;-43
2023/05/12 10:01:24;;;;;;;20.83;12.70;;;17.50;99.90;;;;;;5094379;28;20048;-43
2023/05/12 10:03:57;;;;;;;20.70;12.52;;;17.40;99.90;;;;;;5093911;28;20513;-43
2023/05/12 10:06:36;;;;;;;22.85;13.73;;;17.50;99.90;;;;;;5094105;28;20047;-42
2023/05/12 10:09:24;;;;;;;18.40;11.05;;;17.50;99.90;;;;;;5093809;28;20055;-43
2023/05/12 10:11:50;;;;;;;19.17;12.02;;;17.60;99.90;;;;;;5092687;28;20054;-43
2023/05/12 10:14:17;;;;;;;19.63;12.55;;;17.60;99.90;;;;;;5094253;28;20076;-43
2023/05/12 10:16:44;;;;;;;;;;;17.70;99.90;;;;;;5094339;28;20044;-42
2023/05/12 10:19:12;;;;;;;17.45;11.05;;;17.80;99.90;;;;;;5093930;28;19924;-44
2023/05/12 10:21:39;;;;;;;19.30;11.82;;;17.90;99.90;;;;;;5093809;28;20359;-42
2023/05/12 10:24:06;;;;;;;17.85;11.57;;;18.00;99.90;;;;;;5093772;28;20123;-45
2023/05/12 10:26:35;;;;;;;16.33;10.63;;;18.10;99.90;;;;;;5093734;28;20047;-45
2023/05/12 10:29:01;;;;;;;15.85;10.30;;;18.30;99.90;;;;;;5093539;28;20138;-45
2023/05/12 10:31:27;;;;;;;15.32;9.05;;;18.30;99.90;;;;;;5093890;28;20135;-45
2023/05/12 10:33:57;;;;;;;15.27;8.57;;;18.30;99.90;;;;;;5093645;28;20605;-45
2023/05/12 10:36:23;;;;;;;12.75;8.27;;;18.40;99.90;;;;;;5093514;28;20048;-44
2023/05/12 10:38:49;;;;;;;14.15;9.25;;;18.40;99.90;;;;;;5093673;28;20127;-45
2023/05/12 10:41:16;;;;;;;18.73;11.27;;;18.60;99.90;;;;;;5092791;28;20468;-44
2023/05/12 10:43:49;;;;;;;18.05;10.93;;;18.60;99.90;;;;;;5093623;28;20083;-44
2023/05/12 10:46:19;;;;;;;15.70;9.27;;;18.80;99.90;;;;;;5092691;28;20058;-45
2023/05/12 10:48:55;;;;;;;15.55;9.25;;;18.90;99.90;;;;;;5093373;28;20048;-45
2023/05/12 10:51:32;;;;;;;14.48;9.38;;;19.00;99.90;;;;;;5093553;28;20056;-45
2023/05/12 10:54:00;;;;;;;13.13;8.23;;;19.10;99.90;;;;;;5093824;28;20044;-45
2023/05/12 10:56:37;;;;;;;12.38;7.82;;;19.10;99.90;;;;;;5093440;28;20043;-44
2023/05/12 10:59:17;;;;;;;10.65;6.55;;;19.20;99.90;;;;;;5092494;28;20056;-45
2023/05/12 11:02:07;;;;;;;14.15;8.85;;;19.30;99.90;;;;;;5093272;28;20513;-45
2023/05/12 11:04:46;;;;;;;13.63;8.07;;;19.40;99.90;;;;;;5093433;28;20486;-45
2023/05/12 11:07:13;;;;;;;12.52;7.60;;;19.50;99.90;;;;;;5093606;28;20051;-45
2023/05/12 11:09:44;;;;;;;9.57;6.32;;;19.60;99.90;;;;;;5093223;28;20040;-45
2023/05/12 11:12:11;;;;;;;11.15;5.88;;;19.60;99.90;;;;;;5093262;28;20078;-45
2023/05/12 11:14:42;;;;;;;10.68;6.40;;;19.70;99.90;;;;;;5093342;28;20052;-45
2023/05/12 11:17:08;;;;;;;10.85;6.57;;;19.90;99.90;;;;;;5096249;28;20052;-45
2023/05/12 11:19:34;;;;;;;14.15;7.28;;;19.90;99.90;;;;;;5096905;28;20536;-45
2023/05/12 11:22:09;;;;;;;11.27;6.45;;;20.00;99.90;;;;;;5096978;28;20052;-45
2023/05/12 11:24:36;;;;;;;8.77;5.47;;;20.00;99.90;;;;;;5096919;28;20410;-45
2023/05/12 11:27:06;;;;;;;10.10;5.30;;;20.00;99.90;;;;;;5096076;28;20056;-44
2023/05/12 11:29:32;;;;;;;8.43;5.32;;;20.10;99.90;;;;;;5096417;28;20048;-45
2023/05/12 11:32:01;;;;;;;9.43;5.32;;;20.10;99.90;;;;;;5097015;28;20063;-45
2023/05/12 11:34:27;;;;;;;10.32;5.72;;;20.10;99.90;;;;;;5096622;28;20114;-44
2023/05/12 11:36:56;;;;;;;8.82;5.75;;;20.10;99.90;;;;;;5096741;28;20079;-46
2023/05/12 11:39:26;;;;;;;9.07;5.28;;;19.90;99.90;;;;;;5096694;28;20086;-45
2023/05/12 11:41:53;;;;;;;8.30;4.93;;;19.90;99.90;;;;;;5096608;28;20052;-47
2023/05/12 11:44:22;;;;;;;;;;;19.90;99.90;;;;;;5097044;28;20040;-47
2023/05/12 11:47:01;;;;;;;6.32;3.97;;;20.00;99.90;;;;;;5096618;28;19920;-45
2023/05/12 11:49:28;;;;;;;6.88;4.13;;;20.10;99.90;;;;;;5096230;28;20079;-45
2023/05/12 11:51:56;;;;;;;9.05;4.55;;;20.20;99.90;;;;;;5096510;28;20047;-43
2023/05/12 11:54:22;;;;;;;7.82;4.03;;;20.30;99.90;;;;;;5096867;28;20055;-45
2023/05/12 11:56:48;;;;;;;;;;;20.40;99.90;;;;;;5096889;28;20434;-45
2023/05/12 11:59:34;;;;;;;5.90;3.58;;;20.50;99.90;;;;;;5096629;28;19926;-45
2023/05/12 12:02:02;;;;;;;7.43;4.05;;;20.60;99.90;;;;;;5096263;28;20039;-45
2023/05/12 12:04:34;;;;;;;5.97;3.40;;;20.70;99.90;;;;;;5096530;28;20506;-48
2023/05/12 12:07:00;;;;;;;5.93;3.00;;;20.80;99.90;;;;;;5096154;28;20109;-44
2023/05/12 12:09:33;;;;;;;6.13;3.83;;;20.90;99.90;;;;;;5096134;28;20044;-45
2023/05/12 12:12:00;;;;;;;4.45;2.58;;;21.00;99.90;;;;;;5096155;28;20063;-45
2023/05/12 12:14:26;;;;;;;5.15;2.55;;;21.10;99.90;;;;;;5095806;28;20541;-48
2023/05/12 12:16:52;;;;;;;;;;;21.10;99.90;;;;;;5096406;28;20550;-45
2023/05/12 12:19:18;;;;;;;4.30;2.53;;;21.10;99.90;;;;;;5095990;28;20061;-45
2023/05/12 12:21:43;;;;;;;4.82;2.80;;;21.20;99.90;;;;;;5096068;28;20079;-45
2023/05/12 12:24:09;;;;;;;4.38;2.42;;;21.30;99.90;;;;;;5095821;28;20127;-46
2023/05/12 12:26:35;;;;;;;4.85;1.80;;;21.30;99.90;;;;;;5095560;28;20048;-44
2023/05/12 12:29:00;;;;;;;4.50;2.17;;;21.40;99.90;;;;;;5095557;28;20575;-46
2023/05/12 12:31:26;;;;;;;4.80;2.30;;;21.40;99.90;;;;;;5095579;28;20116;-43
2023/05/12 12:33:52;;;;;;;4.32;2.45;;;21.50;99.90;;;;;;5095696;28;20052;-44
2023/05/12 12:36:18;;;;;;;;;;;21.60;99.90;;;;;;5095144;28;20048;-44